sensor_id;sensor_type;location;lat;lon;timestamp;temperature;humidity
12817;DHT22;6473;51.552;6.716;2023-04-06T00:00:33;2.60;99.90
12817;DHT22;6473;51.552;6.716;2023-04-06T00:03:01;2.50;99.90
12817;DHT22;6473;51.552;6.716;2023-04-06T00:05:28;2.50;99.90
12817;DHT22;6473;51.552;6.716;2023-04-06T00:07:57;2.50;99.90
12817;DHT22;6473;51.552;6.716;2023-04-06T00:10:24;2.70;99.90
12817;DHT22;6473;51.552;6.716;2023-04-06T00:12:52;2.70;99.90
12817;DHT22;6473;51.552;6.716;2023-04-06T00:15:19;2.60;99.90
12817;DHT22;6473;51.552;6.716;2023-04-06T00:17:46;2.60;99.90
12817;DHT22;6473;51.552;6.716;2023-04-06T00:20:14;2.60;99.90
12817;DHT22;6473;51.552;6.716;2023-04-06T00:25:08;2.70;99.90
12817;DHT22;6473;51.552;6.716;2023-04-06T00:27:36;2.80;99.90
12817;DHT22;6473;51.552;6.716;2023-04-06T00:30:04;2.50;99.90
12817;DHT22;6473;51.552;6.716;2023-04-06T00:32:31;2.50;99.90
12817;DHT22;6473;51.552;6.716;2023-04-06T00:37:27;2.40;99.90
12817;DHT22;6473;51.552;6.716;2023-04-06T00:39:54;2.50;99.90
12817;DHT22;6473;51.552;6.716;2023-04-06T00:42:21;2.40;99.90
12817;DHT22;6473;51.552;6.716;2023-04-06T00:44:52;2.30;99.90
12817;DHT22;6473;51.552;6.716;2023-04-06T00:47:19;2.20;99.90
12817;DHT22;6473;51.552;6.716;2023-04-06T00:49:46;2.20;99.90
12817;DHT22;6473;51.552;6.716;2023-04-06T00:52:12;2.10;99.90
12817;DHT22;6473;51.552;6.716;2023-04-06T00:54:42;2.00;99.90
12817;DHT22;6473;51.552;6.716;2023-04-06T00:57:11;2.00;99.90
12817;DHT22;6473;51.552;6.716;2023-04-06T00:59:38;2.10;99.90
12817;DHT22;6473;51.552;6.716;2023-04-06T01:04:42;1.80;99.90
12817;DHT22;6473;51.552;6.716;2023-04-06T01:07:15;1.90;99.90
12817;DHT22;6473;51.552;6.716;2023-04-06T01:09:54;1.80;99.90
12817;DHT22;6473;51.552;6.716;2023-04-06T01:12:25;1.80;99.90
12817;DHT22;6473;51.552;6.716;2023-04-06T01:14:52;1.70;99.90
12817;DHT22;6473;51.552;6.716;2023-04-06T01:17:19;1.80;99.90
12817;DHT22;6473;51.552;6.716;2023-04-06T01:19:47;1.80;99.90
12817;DHT22;6473;51.552;6.716;2023-04-06T01:22:24;1.80;99.90
12817;DHT22;6473;51.552;6.716;2023-04-06T01:24:58;1.70;99.90
12817;DHT22;6473;51.552;6.716;2023-04-06T01:30:19;1.60;99.90
12817;DHT22;6473;51.552;6.716;2023-04-06T01:32:50;1.50;99.90
12817;DHT22;6473;51.552;6.716;2023-04-06T01:35:28;1.50;99.90
12817;DHT22;6473;51.552;6.716;2023-04-06T01:38:07;1.50;99.90
12817;DHT22;6473;51.552;6.716;2023-04-06T01:40:35;1.50;99.90
12817;DHT22;6473;51.552;6.716;2023-04-06T01:45:39;1.40;99.90
12817;DHT22;6473;51.552;6.716;2023-04-06T01:48:14;1.40;99.90
12817;DHT22;6473;51.552;6.716;2023-04-06T01:50:41;1.50;99.90
12817;DHT22;6473;51.552;6.716;2023-04-06T01:53:12;1.50;99.90
12817;DHT22;6473;51.552;6.716;2023-04-06T01:55:41;1.40;99.90
12817;DHT22;6473;51.552;6.716;2023-04-06T01:58:22;1.50;99.90
12817;DHT22;6473;51.552;6.716;2023-04-06T02:00:49;-2.70;99.90
12817;DHT22;6473;51.552;6.716;2023-04-06T02:03:16;1.40;99.90
12817;DHT22;6473;51.552;6.716;2023-04-06T02:08:27;1.30;99.90
12817;DHT22;6473;51.552;6.716;2023-04-06T02:10:54;1.30;99.90
12817;DHT22;6473;51.552;6.716;2023-04-06T02:13:29;1.20;99.90
12817;DHT22;6473;51.552;6.716;2023-04-06T02:15:56;1.20;99.90
12817;DHT22;6473;51.552;6.716;2023-04-06T02:18:23;1.20;99.90
12817;DHT22;6473;51.552;6.716;2023-04-06T02:20:50;1.20;99.90
12817;DHT22;6473;51.552;6.716;2023-04-06T02:23:18;1.10;99.90
12817;DHT22;6473;51.552;6.716;2023-04-06T02:25:46;1.10;99.90
12817;DHT22;6473;51.552;6.716;2023-04-06T02:28:13;1.10;99.90
12817;DHT22;6473;51.552;6.716;2023-04-06T02:30:40;1.10;99.90
12817;DHT22;6473;51.552;6.716;2023-04-06T02:33:07;1.10;99.90
12817;DHT22;6473;51.552;6.716;2023-04-06T02:35:45;1.10;99.90
12817;DHT22;6473;51.552;6.716;2023-04-06T02:38:12;1.10;99.90
12817;DHT22;6473;51.552;6.716;2023-04-06T02:40:39;1.00;99.90
12817;DHT22;6473;51.552;6.716;2023-04-06T02:43:19;0.90;99.90
12817;DHT22;6473;51.552;6.716;2023-04-06T02:45:46;0.90;99.90
12817;DHT22;6473;51.552;6.716;2023-04-06T02:50:41;0.80;99.90
12817;DHT22;6473;51.552;6.716;2023-04-06T02:53:08;0.90;99.90
12817;DHT22;6473;51.552;6.716;2023-04-06T02:55:37;0.90;99.90
12817;DHT22;6473;51.552;6.716;2023-04-06T02:58:04;0.90;99.90
12817;DHT22;6473;51.552;6.716;2023-04-06T03:00:41;0.90;99.90
12817;DHT22;6473;51.552;6.716;2023-04-06T03:03:08;0.90;99.90
12817;DHT22;6473;51.552;6.716;2023-04-06T03:08:04;1.10;99.90
12817;DHT22;6473;51.552;6.716;2023-04-06T03:10:40;1.30;99.90
12817;DHT22;6473;51.552;6.716;2023-04-06T03:13:07;1.30;99.90
12817;DHT22;6473;51.552;6.716;2023-04-06T03:15:50;1.10;99.90
12817;DHT22;6473;51.552;6.716;2023-04-06T03:18:21;1.20;99.90
12817;DHT22;6473;51.552;6.716;2023-04-06T03:23:18;1.20;99.90
12817;DHT22;6473;51.552;6.716;2023-04-06T03:25:47;1.20;99.90
12817;DHT22;6473;51.552;6.716;2023-04-06T03:30:53;1.00;99.90
12817;DHT22;6473;51.552;6.716;2023-04-06T03:36:04;0.90;99.90
12817;DHT22;6473;51.552;6.716;2023-04-06T03:38:35;0.90;99.90
12817;DHT22;6473;51.552;6.716;2023-04-06T03:43:37;0.90;99.90
12817;DHT22;6473;51.552;6.716;2023-04-06T03:46:06;1.00;99.90
12817;DHT22;6473;51.552;6.716;2023-04-06T03:48:33;1.00;99.90
12817;DHT22;6473;51.552;6.716;2023-04-06T03:53:31;1.10;99.90
12817;DHT22;6473;51.552;6.716;2023-04-06T03:55:58;1.20;99.90
12817;DHT22;6473;51.552;6.716;2023-04-06T03:58:27;1.10;99.90
12817;DHT22;6473;51.552;6.716;2023-04-06T04:03:23;1.00;99.90
12817;DHT22;6473;51.552;6.716;2023-04-06T04:05:52;1.10;99.90
12817;DHT22;6473;51.552;6.716;2023-04-06T04:08:19;1.10;99.90
12817;DHT22;6473;51.552;6.716;2023-04-06T04:10:48;1.10;99.90
12817;DHT22;6473;51.552;6.716;2023-04-06T04:13:15;1.00;99.90
12817;DHT22;6473;51.552;6.716;2023-04-06T04:15:46;1.00;99.90
12817;DHT22;6473;51.552;6.716;2023-04-06T04:18:14;1.00;99.90
12817;DHT22;6473;51.552;6.716;2023-04-06T04:20:43;1.10;99.90
12817;DHT22;6473;51.552;6.716;2023-04-06T04:23:11;1.20;99.90
12817;DHT22;6473;51.552;6.716;2023-04-06T04:25:38;1.30;99.90
12817;DHT22;6473;51.552;6.716;2023-04-06T04:28:06;1.30;99.90
12817;DHT22;6473;51.552;6.716;2023-04-06T04:30:33;1.40;99.90
12817;DHT22;6473;51.552;6.716;2023-04-06T04:33:00;1.40;99.90
12817;DHT22;6473;51.552;6.716;2023-04-06T04:35:27;1.40;99.90
12817;DHT22;6473;51.552;6.716;2023-04-06T04:37:56;1.50;99.90
12817;DHT22;6473;51.552;6.716;2023-04-06T04:40:23;1.60;99.90
12817;DHT22;6473;51.552;6.716;2023-04-06T04:43:01;1.70;99.90
12817;DHT22;6473;51.552;6.716;2023-04-06T04:45:32;1.60;99.90
12817;DHT22;6473;51.552;6.716;2023-04-06T04:50:46;1.80;99.90
12817;DHT22;6473;51.552;6.716;2023-04-06T04:53:16;1.90;99.90
12817;DHT22;6473;51.552;6.716;2023-04-06T04:55:44;1.90;99.90
12817;DHT22;6473;51.552;6.716;2023-04-06T04:58:13;1.90;99.90
12817;DHT22;6473;51.552;6.716;2023-04-06T05:00:55;2.00;99.90
12817;DHT22;6473;51.552;6.716;2023-04-06T05:03:24;2.10;99.90
12817;DHT22;6473;51.552;6.716;2023-04-06T05:06:02;2.10;99.90
12817;DHT22;6473;51.552;6.716;2023-04-06T05:08:34;2.20;99.90
12817;DHT22;6473;51.552;6.716;2023-04-06T05:11:01;2.30;99.90
12817;DHT22;6473;51.552;6.716;2023-04-06T05:16:06;2.40;99.90
12817;DHT22;6473;51.552;6.716;2023-04-06T05:18:33;2.50;99.90
12817;DHT22;6473;51.552;6.716;2023-04-06T05:21:01;2.60;99.90
12817;DHT22;6473;51.552;6.716;2023-04-06T05:23:39;2.60;99.90
12817;DHT22;6473;51.552;6.716;2023-04-06T05:26:06;2.60;99.90
12817;DHT22;6473;51.552;6.716;2023-04-06T05:28:33;2.70;99.90
12817;DHT22;6473;51.552;6.716;2023-04-06T05:31:01;2.70;99.90
12817;DHT22;6473;51.552;6.716;2023-04-06T05:33:35;2.80;99.90
12817;DHT22;6473;51.552;6.716;2023-04-06T05:36:07;2.50;99.90
12817;DHT22;6473;51.552;6.716;2023-04-06T05:38:40;3.00;99.80
12817;DHT22;6473;51.552;6.716;2023-04-06T05:41:17;3.10;99.00
12817;DHT22;6473;51.552;6.716;2023-04-06T05:43:44;3.30;97.70
12817;DHT22;6473;51.552;6.716;2023-04-06T05:46:11;3.50;97.40
12817;DHT22;6473;51.552;6.716;2023-04-06T05:48:39;3.60;95.60
12817;DHT22;6473;51.552;6.716;2023-04-06T05:51:07;3.60;95.40
12817;DHT22;6473;51.552;6.716;2023-04-06T05:53:53;4.00;92.70
12817;DHT22;6473;51.552;6.716;2023-04-06T05:56:21;4.10;91.20
12817;DHT22;6473;51.552;6.716;2023-04-06T05:58:49;4.20;90.80
12817;DHT22;6473;51.552;6.716;2023-04-06T06:01:22;4.40;86.30
12817;DHT22;6473;51.552;6.716;2023-04-06T06:03:50;4.70;82.60
12817;DHT22;6473;51.552;6.716;2023-04-06T06:06:17;4.90;76.00
12817;DHT22;6473;51.552;6.716;2023-04-06T06:08:57;5.40;71.50
12817;DHT22;6473;51.552;6.716;2023-04-06T06:11:43;5.20;68.60
12817;DHT22;6473;51.552;6.716;2023-04-06T06:16:41;5.60;62.40
12817;DHT22;6473;51.552;6.716;2023-04-06T06:19:10;6.20;49.90
12817;DHT22;6473;51.552;6.716;2023-04-06T06:21:38;6.00;45.60
12817;DHT22;6473;51.552;6.716;2023-04-06T06:24:07;5.90;52.40
12817;DHT22;6473;51.552;6.716;2023-04-06T06:26:35;5.90;52.40
12817;DHT22;6473;51.552;6.716;2023-04-06T06:29:03;5.90;48.00
12817;DHT22;6473;51.552;6.716;2023-04-06T06:31:33;6.20;47.10
12817;DHT22;6473;51.552;6.716;2023-04-06T06:34:00;6.60;33.40
12817;DHT22;6473;51.552;6.716;2023-04-06T06:36:29;6.60;34.60
12817;DHT22;6473;51.552;6.716;2023-04-06T06:38:57;6.60;31.50
12817;DHT22;6473;51.552;6.716;2023-04-06T06:41:27;7.00;28.60
12817;DHT22;6473;51.552;6.716;2023-04-06T06:43:54;6.90;23.90
12817;DHT22;6473;51.552;6.716;2023-04-06T06:46:23;6.90;24.50
12817;DHT22;6473;51.552;6.716;2023-04-06T06:48:49;7.20;25.10
12817;DHT22;6473;51.552;6.716;2023-04-06T06:51:16;7.20;18.90
12817;DHT22;6473;51.552;6.716;2023-04-06T06:53:43;7.50;15.90
12817;DHT22;6473;51.552;6.716;2023-04-06T06:56:10;7.70;9.20
12817;DHT22;6473;51.552;6.716;2023-04-06T06:58:40;7.70;11.30
12817;DHT22;6473;51.552;6.716;2023-04-06T07:01:07;8.00;11.90
12817;DHT22;6473;51.552;6.716;2023-04-06T07:03:34;8.10;12.50
12817;DHT22;6473;51.552;6.716;2023-04-06T07:06:01;9.20;1.00
12817;DHT22;6473;51.552;6.716;2023-04-06T07:08:28;9.20;1.00
12817;DHT22;6473;51.552;6.716;2023-04-06T07:10:55;13.20;1.00
12817;DHT22;6473;51.552;6.716;2023-04-06T07:13:22;12.10;1.00
12817;DHT22;6473;51.552;6.716;2023-04-06T07:15:53;10.90;1.00
12817;DHT22;6473;51.552;6.716;2023-04-06T07:18:21;11.10;1.00
12817;DHT22;6473;51.552;6.716;2023-04-06T07:20:48;12.10;1.00
12817;DHT22;6473;51.552;6.716;2023-04-06T07:23:16;12.90;1.00
12817;DHT22;6473;51.552;6.716;2023-04-06T07:25:44;12.70;1.00
12817;DHT22;6473;51.552;6.716;2023-04-06T07:28:11;11.40;1.00
12817;DHT22;6473;51.552;6.716;2023-04-06T07:30:40;13.80;1.00
12817;DHT22;6473;51.552;6.716;2023-04-06T07:33:09;11.20;1.00
12817;DHT22;6473;51.552;6.716;2023-04-06T07:35:37;11.70;1.00
12817;DHT22;6473;51.552;6.716;2023-04-06T07:38:05;10.90;1.00
12817;DHT22;6473;51.552;6.716;2023-04-06T07:40:33;12.60;1.00
12817;DHT22;6473;51.552;6.716;2023-04-06T07:43:00;11.90;1.00
12817;DHT22;6473;51.552;6.716;2023-04-06T07:45:28;10.70;1.00
12817;DHT22;6473;51.552;6.716;2023-04-06T07:47:56;11.00;1.00
12817;DHT22;6473;51.552;6.716;2023-04-06T07:50:26;13.10;1.00
12817;DHT22;6473;51.552;6.716;2023-04-06T07:52:54;12.10;1.00
12817;DHT22;6473;51.552;6.716;2023-04-06T07:55:21;10.40;1.00
12817;DHT22;6473;51.552;6.716;2023-04-06T07:57:48;10.70;1.00
12817;DHT22;6473;51.552;6.716;2023-04-06T08:00:16;10.70;1.00
12817;DHT22;6473;51.552;6.716;2023-04-06T08:02:43;11.30;1.00
12817;DHT22;6473;51.552;6.716;2023-04-06T08:05:10;13.50;1.00
12817;DHT22;6473;51.552;6.716;2023-04-06T08:07:38;11.00;1.00
12817;DHT22;6473;51.552;6.716;2023-04-06T08:10:06;10.80;1.00
12817;DHT22;6473;51.552;6.716;2023-04-06T08:12:33;11.70;1.00
12817;DHT22;6473;51.552;6.716;2023-04-06T08:15:00;13.30;1.00
12817;DHT22;6473;51.552;6.716;2023-04-06T08:17:28;11.80;1.00
12817;DHT22;6473;51.552;6.716;2023-04-06T08:19:56;13.40;1.00
12817;DHT22;6473;51.552;6.716;2023-04-06T08:22:22;12.30;1.00
12817;DHT22;6473;51.552;6.716;2023-04-06T08:24:51;13.80;1.00
12817;DHT22;6473;51.552;6.716;2023-04-06T08:27:18;12.60;1.00
12817;DHT22;6473;51.552;6.716;2023-04-06T08:29:44;12.80;1.00
12817;DHT22;6473;51.552;6.716;2023-04-06T08:32:11;10.50;1.00
12817;DHT22;6473;51.552;6.716;2023-04-06T08:34:38;10.30;1.00
12817;DHT22;6473;51.552;6.716;2023-04-06T08:37:06;12.20;1.00
12817;DHT22;6473;51.552;6.716;2023-04-06T08:39:33;13.40;1.00
12817;DHT22;6473;51.552;6.716;2023-04-06T08:42:01;11.80;1.00
12817;DHT22;6473;51.552;6.716;2023-04-06T08:44:29;11.90;1.00
12817;DHT22;6473;51.552;6.716;2023-04-06T08:46:57;11.50;1.00
12817;DHT22;6473;51.552;6.716;2023-04-06T08:49:25;13.00;1.00
12817;DHT22;6473;51.552;6.716;2023-04-06T08:51:53;12.40;1.00
12817;DHT22;6473;51.552;6.716;2023-04-06T08:54:21;12.30;1.00
12817;DHT22;6473;51.552;6.716;2023-04-06T08:56:48;12.60;1.00
12817;DHT22;6473;51.552;6.716;2023-04-06T08:59:16;14.50;1.00
12817;DHT22;6473;51.552;6.716;2023-04-06T09:01:44;14.10;1.00
12817;DHT22;6473;51.552;6.716;2023-04-06T09:04:12;14.00;1.00
12817;DHT22;6473;51.552;6.716;2023-04-06T09:06:39;13.70;1.00
12817;DHT22;6473;51.552;6.716;2023-04-06T09:09:06;13.40;1.00
12817;DHT22;6473;51.552;6.716;2023-04-06T09:11:47;13.20;1.00
12817;DHT22;6473;51.552;6.716;2023-04-06T09:14:16;13.60;1.00
12817;DHT22;6473;51.552;6.716;2023-04-06T09:16:44;14.00;1.00
12817;DHT22;6473;51.552;6.716;2023-04-06T09:19:12;12.70;1.00
12817;DHT22;6473;51.552;6.716;2023-04-06T09:21:39;12.70;1.00
12817;DHT22;6473;51.552;6.716;2023-04-06T09:24:07;12.90;1.00
12817;DHT22;6473;51.552;6.716;2023-04-06T09:26:45;13.00;1.00
12817;DHT22;6473;51.552;6.716;2023-04-06T09:29:23;12.50;1.00
12817;DHT22;6473;51.552;6.716;2023-04-06T09:31:52;12.60;1.00
12817;DHT22;6473;51.552;6.716;2023-04-06T09:34:22;13.00;1.00
12817;DHT22;6473;51.552;6.716;2023-04-06T09:36:49;13.40;1.00
12817;DHT22;6473;51.552;6.716;2023-04-06T09:39:20;12.90;1.00
12817;DHT22;6473;51.552;6.716;2023-04-06T09:41:50;14.20;1.00
12817;DHT22;6473;51.552;6.716;2023-04-06T09:44:18;13.20;1.00
12817;DHT22;6473;51.552;6.716;2023-04-06T09:46:46;12.80;1.00
12817;DHT22;6473;51.552;6.716;2023-04-06T09:49:14;13.10;1.00
12817;DHT22;6473;51.552;6.716;2023-04-06T09:51:45;14.10;1.00
12817;DHT22;6473;51.552;6.716;2023-04-06T09:54:17;11.60;1.00
12817;DHT22;6473;51.552;6.716;2023-04-06T09:56:46;11.90;1.00
12817;DHT22;6473;51.552;6.716;2023-04-06T09:59:17;12.50;1.00
12817;DHT22;6473;51.552;6.716;2023-04-06T10:01:48;13.20;1.00
12817;DHT22;6473;51.552;6.716;2023-04-06T10:04:31;12.70;1.00
12817;DHT22;6473;51.552;6.716;2023-04-06T10:07:00;12.90;1.00
12817;DHT22;6473;51.552;6.716;2023-04-06T10:09:29;14.30;1.00
12817;DHT22;6473;51.552;6.716;2023-04-06T10:12:02;12.80;1.00
12817;DHT22;6473;51.552;6.716;2023-04-06T10:14:31;13.30;1.00
12817;DHT22;6473;51.552;6.716;2023-04-06T10:16:59;13.30;1.00
12817;DHT22;6473;51.552;6.716;2023-04-06T10:19:32;14.50;1.00
12817;DHT22;6473;51.552;6.716;2023-04-06T10:22:02;13.40;1.00
12817;DHT22;6473;51.552;6.716;2023-04-06T10:24:29;14.00;1.00
12817;DHT22;6473;51.552;6.716;2023-04-06T10:27:01;14.60;1.00
12817;DHT22;6473;51.552;6.716;2023-04-06T10:29:28;14.10;1.00
12817;DHT22;6473;51.552;6.716;2023-04-06T10:32:08;13.60;1.00
12817;DHT22;6473;51.552;6.716;2023-04-06T10:34:35;12.20;1.00
12817;DHT22;6473;51.552;6.716;2023-04-06T10:37:11;13.90;1.00
12817;DHT22;6473;51.552;6.716;2023-04-06T10:39:46;13.60;1.00
12817;DHT22;6473;51.552;6.716;2023-04-06T10:42:13;14.50;1.00
12817;DHT22;6473;51.552;6.716;2023-04-06T10:44:44;13.90;1.00
12817;DHT22;6473;51.552;6.716;2023-04-06T10:47:19;13.70;1.00
12817;DHT22;6473;51.552;6.716;2023-04-06T10:49:46;13.30;1.00
12817;DHT22;6473;51.552;6.716;2023-04-06T10:52:13;13.10;1.00
12817;DHT22;6473;51.552;6.716;2023-04-06T10:54:42;13.00;1.00
12817;DHT22;6473;51.552;6.716;2023-04-06T10:57:10;13.80;1.00
12817;DHT22;6473;51.552;6.716;2023-04-06T10:59:41;13.10;1.00
12817;DHT22;6473;51.552;6.716;2023-04-06T11:02:08;14.70;1.00
12817;DHT22;6473;51.552;6.716;2023-04-06T11:04:39;13.10;1.00
12817;DHT22;6473;51.552;6.716;2023-04-06T11:07:07;13.10;1.00
12817;DHT22;6473;51.552;6.716;2023-04-06T11:09:34;14.40;1.00
12817;DHT22;6473;51.552;6.716;2023-04-06T11:12:02;14.20;1.00
12817;DHT22;6473;51.552;6.716;2023-04-06T11:14:29;13.60;1.00
12817;DHT22;6473;51.552;6.716;2023-04-06T11:16:56;13.50;1.00
12817;DHT22;6473;51.552;6.716;2023-04-06T11:19:22;13.80;1.00
12817;DHT22;6473;51.552;6.716;2023-04-06T11:21:51;13.80;1.00
12817;DHT22;6473;51.552;6.716;2023-04-06T11:24:19;13.60;1.00
12817;DHT22;6473;51.552;6.716;2023-04-06T11:26:47;13.70;1.00
12817;DHT22;6473;51.552;6.716;2023-04-06T11:29:17;13.70;1.00
12817;DHT22;6473;51.552;6.716;2023-04-06T11:31:46;15.60;1.00
12817;DHT22;6473;51.552;6.716;2023-04-06T11:34:16;14.60;1.00
12817;DHT22;6473;51.552;6.716;2023-04-06T11:36:44;14.80;1.00
12817;DHT22;6473;51.552;6.716;2023-04-06T11:39:20;13.80;1.00
12817;DHT22;6473;51.552;6.716;2023-04-06T11:41:48;13.80;1.00
12817;DHT22;6473;51.552;6.716;2023-04-06T11:44:26;13.70;1.00
12817;DHT22;6473;51.552;6.716;2023-04-06T11:46:53;14.80;1.00
12817;DHT22;6473;51.552;6.716;2023-04-06T11:49:20;13.70;1.00
12817;DHT22;6473;51.552;6.716;2023-04-06T11:51:47;14.80;1.00
12817;DHT22;6473;51.552;6.716;2023-04-06T11:54:15;13.20;1.00
12817;DHT22;6473;51.552;6.716;2023-04-06T11:56:46;13.40;1.00
12817;DHT22;6473;51.552;6.716;2023-04-06T11:59:13;13.60;1.00
12817;DHT22;6473;51.552;6.716;2023-04-06T12:01:45;13.50;1.00
12817;DHT22;6473;51.552;6.716;2023-04-06T12:04:12;13.60;1.00
12817;DHT22;6473;51.552;6.716;2023-04-06T12:06:39;13.40;1.00
12817;DHT22;6473;51.552;6.716;2023-04-06T12:09:05;13.50;1.00
12817;DHT22;6473;51.552;6.716;2023-04-06T12:11:34;13.50;1.00
12817;DHT22;6473;51.552;6.716;2023-04-06T12:14:01;13.40;1.00
12817;DHT22;6473;51.552;6.716;2023-04-06T12:16:30;12.60;1.00
12817;DHT22;6473;51.552;6.716;2023-04-06T12:18:57;14.20;1.00
12817;DHT22;6473;51.552;6.716;2023-04-06T12:21:24;13.30;1.00
12817;DHT22;6473;51.552;6.716;2023-04-06T12:23:51;13.20;1.00
12817;DHT22;6473;51.552;6.716;2023-04-06T12:26:17;13.30;1.00
12817;DHT22;6473;51.552;6.716;2023-04-06T12:28:46;13.40;1.00
12817;DHT22;6473;51.552;6.716;2023-04-06T12:31:16;13.20;1.00
12817;DHT22;6473;51.552;6.716;2023-04-06T12:33:44;13.60;1.00
12817;DHT22;6473;51.552;6.716;2023-04-06T12:36:12;13.80;1.00
12817;DHT22;6473;51.552;6.716;2023-04-06T12:38:39;13.90;1.00
12817;DHT22;6473;51.552;6.716;2023-04-06T12:41:07;14.10;1.00
12817;DHT22;6473;51.552;6.716;2023-04-06T12:43:34;13.30;1.00
12817;DHT22;6473;51.552;6.716;2023-04-06T12:46:02;14.50;1.00
12817;DHT22;6473;51.552;6.716;2023-04-06T12:48:29;13.30;1.00
12817;DHT22;6473;51.552;6.716;2023-04-06T12:50:58;13.80;1.00
12817;DHT22;6473;51.552;6.716;2023-04-06T12:53:25;13.50;1.00
12817;DHT22;6473;51.552;6.716;2023-04-06T12:55:54;14.10;1.00
12817;DHT22;6473;51.552;6.716;2023-04-06T12:58:21;13.20;1.00
12817;DHT22;6473;51.552;6.716;2023-04-06T13:00:49;12.80;1.00
12817;DHT22;6473;51.552;6.716;2023-04-06T13:03:18;13.00;1.00
12817;DHT22;6473;51.552;6.716;2023-04-06T13:05:45;13.00;1.00
12817;DHT22;6473;51.552;6.716;2023-04-06T13:08:12;13.20;1.00
12817;DHT22;6473;51.552;6.716;2023-04-06T13:10:43;13.00;1.00
12817;DHT22;6473;51.552;6.716;2023-04-06T13:13:10;12.50;1.00
12817;DHT22;6473;51.552;6.716;2023-04-06T13:15:37;14.00;1.10
12817;DHT22;6473;51.552;6.716;2023-04-06T13:18:04;11.90;10.00
12817;DHT22;6473;51.552;6.716;2023-04-06T13:20:32;11.90;27.60
12817;DHT22;6473;51.552;6.716;2023-04-06T13:22:59;13.80;25.20
12817;DHT22;6473;51.552;6.716;2023-04-06T13:25:26;12.00;19.50
12817;DHT22;6473;51.552;6.716;2023-04-06T13:27:53;11.40;16.10
12817;DHT22;6473;51.552;6.716;2023-04-06T13:30:21;12.30;20.60
12817;DHT22;6473;51.552;6.716;2023-04-06T13:32:48;12.50;10.70
12817;DHT22;6473;51.552;6.716;2023-04-06T13:35:15;12.40;14.40
12817;DHT22;6473;51.552;6.716;2023-04-06T13:37:44;12.00;15.40
12817;DHT22;6473;51.552;6.716;2023-04-06T13:40:11;14.60;24.60
12817;DHT22;6473;51.552;6.716;2023-04-06T13:42:38;11.60;21.70
12817;DHT22;6473;51.552;6.716;2023-04-06T13:45:07;11.40;29.00
12817;DHT22;6473;51.552;6.716;2023-04-06T13:47:34;11.70;37.40
12817;DHT22;6473;51.552;6.716;2023-04-06T13:50:01;11.70;26.90
12817;DHT22;6473;51.552;6.716;2023-04-06T13:52:28;11.70;29.70
12817;DHT22;6473;51.552;6.716;2023-04-06T13:54:56;13.70;47.50
12817;DHT22;6473;51.552;6.716;2023-04-06T13:57:23;13.70;43.20
12817;DHT22;6473;51.552;6.716;2023-04-06T13:59:50;13.60;54.50
12817;DHT22;6473;51.552;6.716;2023-04-06T14:02:17;12.90;70.40
12817;DHT22;6473;51.552;6.716;2023-04-06T14:04:45;13.20;91.10
12817;DHT22;6473;51.552;6.716;2023-04-06T14:07:12;13.30;99.30
12817;DHT22;6473;51.552;6.716;2023-04-06T14:09:39;11.10;99.90
12817;DHT22;6473;51.552;6.716;2023-04-06T14:12:07;12.20;99.90
12817;DHT22;6473;51.552;6.716;2023-04-06T14:14:34;13.50;99.90
12817;DHT22;6473;51.552;6.716;2023-04-06T14:17:01;10.80;99.90
12817;DHT22;6473;51.552;6.716;2023-04-06T14:19:28;10.90;99.90
12817;DHT22;6473;51.552;6.716;2023-04-06T14:21:55;10.80;99.90
12817;DHT22;6473;51.552;6.716;2023-04-06T14:24:23;11.40;99.90
12817;DHT22;6473;51.552;6.716;2023-04-06T14:26:50;11.50;99.90
12817;DHT22;6473;51.552;6.716;2023-04-06T14:29:18;12.10;99.90
12817;DHT22;6473;51.552;6.716;2023-04-06T14:31:47;10.60;99.90
12817;DHT22;6473;51.552;6.716;2023-04-06T14:34:15;10.60;99.90
12817;DHT22;6473;51.552;6.716;2023-04-06T14:36:42;10.70;99.90
12817;DHT22;6473;51.552;6.716;2023-04-06T14:39:09;12.50;99.90
12817;DHT22;6473;51.552;6.716;2023-04-06T14:41:36;10.40;99.90
12817;DHT22;6473;51.552;6.716;2023-04-06T14:44:03;10.50;99.90
12817;DHT22;6473;51.552;6.716;2023-04-06T14:46:31;10.50;99.90
12817;DHT22;6473;51.552;6.716;2023-04-06T14:48:59;10.20;99.90
12817;DHT22;6473;51.552;6.716;2023-04-06T14:51:26;10.20;99.90
12817;DHT22;6473;51.552;6.716;2023-04-06T14:53:53;9.90;99.90
12817;DHT22;6473;51.552;6.716;2023-04-06T14:56:21;10.10;99.90
12817;DHT22;6473;51.552;6.716;2023-04-06T14:58:48;12.10;99.90
12817;DHT22;6473;51.552;6.716;2023-04-06T15:01:17;9.80;99.90
12817;DHT22;6473;51.552;6.716;2023-04-06T15:03:46;9.70;99.90
12817;DHT22;6473;51.552;6.716;2023-04-06T15:06:14;9.50;99.90
12817;DHT22;6473;51.552;6.716;2023-04-06T15:08:42;10.60;99.90
12817;DHT22;6473;51.552;6.716;2023-04-06T15:11:09;9.50;99.90
12817;DHT22;6473;51.552;6.716;2023-04-06T15:13:36;7.90;99.90
12817;DHT22;6473;51.552;6.716;2023-04-06T15:16:03;9.40;99.90
12817;DHT22;6473;51.552;6.716;2023-04-06T15:18:30;9.40;99.90
12817;DHT22;6473;51.552;6.716;2023-04-06T15:20:59;9.30;99.90
12817;DHT22;6473;51.552;6.716;2023-04-06T15:23:26;9.20;99.90
12817;DHT22;6473;51.552;6.716;2023-04-06T15:25:55;8.30;99.90
12817;DHT22;6473;51.552;6.716;2023-04-06T15:28:21;9.10;99.90
12817;DHT22;6473;51.552;6.716;2023-04-06T15:30:48;9.40;99.90
12817;DHT22;6473;51.552;6.716;2023-04-06T15:33:15;9.10;99.90
12817;DHT22;6473;51.552;6.716;2023-04-06T15:35:43;11.30;99.90
12817;DHT22;6473;51.552;6.716;2023-04-06T15:38:11;8.90;99.90
12817;DHT22;6473;51.552;6.716;2023-04-06T15:40:43;8.70;99.90
12817;DHT22;6473;51.552;6.716;2023-04-06T15:43:10;8.60;99.90
12817;DHT22;6473;51.552;6.716;2023-04-06T15:45:37;8.60;99.90
12817;DHT22;6473;51.552;6.716;2023-04-06T15:48:04;8.60;99.90
12817;DHT22;6473;51.552;6.716;2023-04-06T15:50:31;8.60;99.90
12817;DHT22;6473;51.552;6.716;2023-04-06T15:52:58;8.50;99.90
12817;DHT22;6473;51.552;6.716;2023-04-06T15:55:26;9.00;99.90
12817;DHT22;6473;51.552;6.716;2023-04-06T15:57:53;8.40;99.90
12817;DHT22;6473;51.552;6.716;2023-04-06T16:00:21;8.30;99.90
12817;DHT22;6473;51.552;6.716;2023-04-06T16:02:48;8.40;99.90
12817;DHT22;6473;51.552;6.716;2023-04-06T16:05:15;8.30;99.90
12817;DHT22;6473;51.552;6.716;2023-04-06T16:10:13;8.20;99.90
12817;DHT22;6473;51.552;6.716;2023-04-06T16:12:41;8.10;99.90
12817;DHT22;6473;51.552;6.716;2023-04-06T16:15:09;8.20;99.90
12817;DHT22;6473;51.552;6.716;2023-04-06T16:17:36;8.10;99.90
12817;DHT22;6473;51.552;6.716;2023-04-06T16:20:03;8.00;99.90
12817;DHT22;6473;51.552;6.716;2023-04-06T16:22:30;8.00;99.90
12817;DHT22;6473;51.552;6.716;2023-04-06T16:27:24;7.90;99.90
12817;DHT22;6473;51.552;6.716;2023-04-06T16:29:53;7.80;99.90
12817;DHT22;6473;51.552;6.716;2023-04-06T16:32:20;7.80;99.90
12817;DHT22;6473;51.552;6.716;2023-04-06T16:34:47;7.80;99.90
12817;DHT22;6473;51.552;6.716;2023-04-06T16:37:14;7.70;99.90
12817;DHT22;6473;51.552;6.716;2023-04-06T16:39:41;7.70;99.90
12817;DHT22;6473;51.552;6.716;2023-04-06T16:42:08;7.70;99.90
12817;DHT22;6473;51.552;6.716;2023-04-06T16:44:35;7.70;99.90
12817;DHT22;6473;51.552;6.716;2023-04-06T16:47:04;7.70;99.90
12817;DHT22;6473;51.552;6.716;2023-04-06T16:49:33;7.70;99.90
12817;DHT22;6473;51.552;6.716;2023-04-06T16:52:01;7.80;99.90
12817;DHT22;6473;51.552;6.716;2023-04-06T16:56:59;7.70;99.90
12817;DHT22;6473;51.552;6.716;2023-04-06T16:59:26;7.70;99.90